Terminal Aerodrome Forecast
Issued by NWS Jacksonville, FL

Home | Current Version | Previous Version | Text Only | Print | Product List | Glossary On
Versions: 1 2 3 4 5 6 7 8 9 10 11 12 13 14 15 16 17 18 19 20 21
000
FTUS42 KJAX 312325
TAFSSI
TAF
KSSI 312325Z 0100/0124 24006KT P6SM VCTS SCT015 BKN030CB
      TEMPO 0100/0103 3SM TSRA BR BKN015CB
     FM010400 24006KT P6SM VCSH SCT015 OVC025
     FM011000 23007KT P6SM VCSH OVC015
     FM011500 23010KT 5SM -SHRA BR OVC015=

USA.gov is the U.S. government's official web portal to all federal, state and local government web resources and services.